createdAt,value
2022-09-28T00:01:30.344Z,99028.89
2022-09-28T00:03:59.979Z,99034.93
2022-09-28T00:06:31.081Z,99035.63
2022-09-28T00:09:01.735Z,99032.97
2022-09-28T00:11:31.138Z,99038.31
2022-09-28T00:14:03.799Z,99038.31
2022-09-28T00:16:38.627Z,99054.49
2022-09-28T00:19:08.541Z,99031.29
2022-09-28T00:21:39.658Z,99033.01
2022-09-28T00:24:15.282Z,99034.63
2022-09-28T00:26:54.036Z,99028.25
2022-09-28T00:29:26.783Z,99020.02
2022-09-28T00:32:00.299Z,99025.77
2022-09-28T00:34:34.988Z,99025.77
2022-09-28T00:37:05.855Z,99019.88
2022-09-28T00:39:36.198Z,99018.56
2022-09-28T00:42:06.833Z,99012.98
2022-09-28T00:44:58.698Z,99012.98
2022-09-28T00:47:46.833Z,99003.06
2022-09-28T00:50:21.613Z,99016.45
2022-09-28T00:52:56.217Z,99019.67
2022-09-28T00:55:36.899Z,99019.67
2022-09-28T00:58:09.272Z,99010.64
2022-09-28T01:00:40.810Z,99015.03
2022-09-28T01:03:11.389Z,99028.92
2022-09-28T01:05:41.641Z,99011.04
2022-09-28T01:08:11.301Z,99011.04
2022-09-28T01:10:43.760Z,99012.16
2022-09-28T01:13:15.911Z,99010.13
2022-09-28T01:15:47.833Z,99010.13
2022-09-28T01:18:22.543Z,99019.70
2022-09-28T01:20:57.333Z,99022.19
2022-09-28T01:23:44.369Z,99025.74
2022-09-28T01:26:37.748Z,99025.74
2022-09-28T01:29:26.355Z,99026.39
2022-09-28T01:31:58.243Z,99025.64
2022-09-28T01:34:30.364Z,99036.19
2022-09-28T01:37:02.205Z,99040.10
2022-09-28T01:39:36.931Z,99028.89
2022-09-28T01:42:08.782Z,99025.87
2022-09-28T01:44:40.800Z,99033.51
2022-09-28T01:47:12.628Z,99040.59
2022-09-28T01:49:44.513Z,99041.05
2022-09-28T01:52:19.108Z,99041.29
2022-09-28T01:54:59.629Z,99041.29
2022-09-28T01:57:32.645Z,99020.04
2022-09-28T02:00:11.125Z,99032.84
2022-09-28T02:03:10.218Z,99028.76
2022-09-28T02:05:42.322Z,99028.76
2022-09-28T02:08:14.177Z,99028.22
2022-09-28T02:11:04.312Z,99027.30
2022-09-28T02:13:36.207Z,99029.17
2022-09-28T02:16:08.225Z,98987.05
2022-09-28T02:18:37.619Z,99030.38
2022-09-28T02:21:09.479Z,99036.14
2022-09-28T02:23:41.377Z,99038.47
2022-09-28T02:26:13.251Z,99035.75
2022-09-28T02:28:42.232Z,99037.34
2022-09-28T02:31:11.344Z,98979.95
2022-09-28T02:33:43.392Z,99038.73
2022-09-28T02:36:13.016Z,99038.73
2022-09-28T02:38:41.967Z,99041.06
2022-09-28T02:41:16.858Z,99029.16
2022-09-28T02:43:54.419Z,99033.36
2022-09-28T02:46:34.988Z,99029.35
2022-09-28T02:49:26.020Z,99029.81
2022-09-28T02:52:28.021Z,99035.69
2022-09-28T02:55:11.817Z,99035.69
2022-09-28T02:57:55.680Z,99023.32
2022-09-28T03:00:26.569Z,99022.62
2022-09-28T03:03:22.909Z,99017.19
2022-09-28T03:06:09.790Z,99017.19
2022-09-28T03:08:41.679Z,99027.52
2022-09-28T03:11:30.200Z,99027.52
2022-09-28T03:14:00.811Z,99026.30
2022-09-28T03:16:31.472Z,99017.48
2022-09-28T03:19:00.562Z,99013.92
2022-09-28T03:21:29.458Z,99019.12
2022-09-28T03:23:58.441Z,99019.12
2022-09-28T03:26:27.487Z,99021.80
2022-09-28T03:28:56.500Z,99023.82
2022-09-28T03:31:25.705Z,99018.28
2022-09-28T03:33:54.937Z,99007.94
2022-09-28T03:36:24.414Z,99016.39
2022-09-28T03:38:56.605Z,99016.39
2022-09-28T03:41:29.015Z,99008.89
2022-09-28T03:43:58.033Z,99025.37
2022-09-28T03:46:27.674Z,99020.71
2022-09-28T03:48:59.504Z,99020.71
2022-09-28T03:51:28.601Z,99026.00
2022-09-28T03:53:57.587Z,99040.30
2022-09-28T03:56:26.673Z,99040.30
2022-09-28T03:58:55.844Z,99044.30
2022-09-28T04:01:24.860Z,99037.51
2022-09-28T04:03:58.819Z,99043.91
2022-09-28T04:06:28.381Z,99040.20
2022-09-28T04:08:57.420Z,99040.20
2022-09-28T04:11:26.366Z,99056.47
2022-09-28T04:13:55.417Z,99056.47
2022-09-28T04:16:24.453Z,99053.86
2022-09-28T04:18:53.551Z,99048.26
2022-09-28T04:21:23.144Z,99048.26
2022-09-28T04:23:53.406Z,99033.80
2022-09-28T04:26:24.780Z,99045.54
2022-09-28T04:29:12.063Z,99051.60
2022-09-28T04:31:46.716Z,99050.22
2022-09-28T04:34:18.348Z,99041.82
2022-09-28T04:36:48.395Z,99042.36
2022-09-28T04:39:19.679Z,99037.31
2022-09-28T04:41:50.123Z,99037.31
2022-09-28T04:44:19.107Z,99032.41
2022-09-28T04:46:48.164Z,99042.03
2022-09-28T04:49:17.587Z,99042.03
2022-09-28T04:51:46.752Z,99049.45
2022-09-28T04:54:15.707Z,99054.26
2022-09-28T04:56:45.405Z,99054.26
2022-09-28T04:59:17.258Z,99049.67
2022-09-28T05:01:47.118Z,99056.70
2022-09-28T05:04:16.792Z,99055.25
2022-09-28T05:06:45.799Z,99060.73
2022-09-28T05:09:14.964Z,99060.73
2022-09-28T05:11:44.727Z,99051.02
2022-09-28T05:14:13.857Z,99051.02
2022-09-28T05:16:42.956Z,99055.28
2022-09-28T05:19:12.756Z,99064.77
2022-09-28T05:21:43.509Z,99067.46
2022-09-28T05:24:14.038Z,99074.78
2022-09-28T05:26:47.639Z,99056.64
2022-09-28T05:29:16.768Z,99067.77
2022-09-28T05:31:45.895Z,99061.90
2022-09-28T05:34:14.939Z,99048.85
2022-09-28T05:36:45.572Z,99048.85
2022-09-28T05:39:14.738Z,99051.04
2022-09-28T05:41:43.759Z,99061.66
2022-09-28T05:44:12.965Z,99047.70
2022-09-28T05:46:41.936Z,99047.70
2022-09-28T05:49:10.973Z,99047.81
2022-09-28T05:51:39.960Z,99047.81
2022-09-28T05:54:09.612Z,99035.25
2022-09-28T05:56:38.607Z,99040.36
2022-09-28T05:59:07.758Z,99030.91
2022-09-28T06:01:37.051Z,99046.07
2022-09-28T06:04:06.254Z,99037.54
2022-09-28T06:06:38.491Z,99044.60
2022-09-28T06:09:07.598Z,99044.60
2022-09-28T06:11:37.032Z,99044.22
2022-09-28T06:14:06.058Z,99049.89
2022-09-28T06:16:35.693Z,99055.27
2022-09-28T06:19:05.944Z,99048.53
2022-09-28T06:21:35.322Z,99060.58
2022-09-28T06:24:05.903Z,99066.55
2022-09-28T06:26:34.894Z,99066.55
2022-09-28T06:29:04.102Z,99058.98
2022-09-28T06:31:33.144Z,99058.98
2022-09-28T06:34:02.441Z,99063.36
2022-09-28T06:36:34.307Z,99062.66
2022-09-28T06:39:03.271Z,99062.84
2022-09-28T06:41:32.798Z,99075.59
2022-09-28T06:44:03.474Z,99069.06
2022-09-28T06:46:32.664Z,99071.37
2022-09-28T06:49:02.051Z,99071.37
2022-09-28T06:51:31.074Z,99068.91
2022-09-28T06:54:00.149Z,99081.63
2022-09-28T06:56:32.726Z,99080.59
2022-09-28T06:58:59.878Z,99087.39
2022-09-28T07:01:29.223Z,99093.83
2022-09-28T07:03:58.305Z,99093.24
2022-09-28T07:06:29.066Z,99091.26
2022-09-28T07:09:07.342Z,99093.08
2022-09-28T07:11:30.618Z,99091.85
2022-09-28T07:13:59.693Z,99091.85
2022-09-28T07:16:43.014Z,99092.49
2022-09-28T07:18:59.418Z,99092.10
2022-09-28T07:21:30.496Z,99089.95
2022-09-28T07:24:00.191Z,99091.59
2022-09-28T07:26:29.304Z,99087.41
2022-09-28T07:28:58.371Z,99087.41
2022-09-28T07:31:28.244Z,99087.54
2022-09-28T07:33:58.810Z,99082.76
2022-09-28T07:36:28.106Z,99082.16
2022-09-28T07:38:57.112Z,99083.47
2022-09-28T07:41:27.725Z,99079.05
2022-09-28T07:43:56.988Z,99073.91
2022-09-28T07:46:26.112Z,99081.70
2022-09-28T07:48:55.228Z,99081.70
2022-09-28T07:51:25.263Z,99081.80
2022-09-28T07:53:56.317Z,99080.95
2022-09-28T07:56:25.524Z,99084.39
2022-09-28T07:58:54.500Z,99081.74
2022-09-28T08:01:23.549Z,99073.30
2022-09-28T08:03:54.126Z,99075.34
2022-09-28T08:06:23.527Z,99073.09
2022-09-28T08:08:54.150Z,99065.19
2022-09-28T08:11:23.149Z,99060.95
2022-09-28T08:13:53.845Z,99049.76
2022-09-28T08:16:22.915Z,99049.76
2022-09-28T08:18:52.050Z,99047.75
2022-09-28T08:21:40.163Z,99043.47
2022-09-28T08:24:09.184Z,99045.89
2022-09-28T08:26:38.175Z,99055.27
2022-09-28T08:29:08.458Z,99046.51
2022-09-28T08:31:37.856Z,99046.51
2022-09-28T08:34:06.977Z,99032.49
2022-09-28T08:36:35.982Z,99032.49
2022-09-28T08:39:05.333Z,99033.87
2022-09-28T08:41:43.180Z,99036.06
2022-09-28T08:44:15.482Z,99032.77
2022-09-28T08:46:50.357Z,99030.89
2022-09-28T08:49:38.965Z,99029.05
2022-09-28T08:52:11.208Z,99026.78
2022-09-28T08:54:58.608Z,99033.82
2022-09-28T08:57:30.531Z,99041.44
2022-09-28T09:00:02.355Z,99055.09
2022-09-28T09:02:34.018Z,99055.09
2022-09-28T09:05:06.433Z,99047.56
2022-09-28T09:07:50.365Z,99052.15
2022-09-28T09:10:44.756Z,99053.15
2022-09-28T09:13:46.996Z,99057.86
2022-09-28T09:16:24.872Z,99058.27
2022-09-28T09:19:05.393Z,99065.73
2022-09-28T09:21:56.204Z,99057.82
2022-09-28T09:24:28.164Z,99061.23
2022-09-28T09:27:09.190Z,99061.23
2022-09-28T09:30:02.188Z,99052.34
2022-09-28T09:33:10.841Z,99052.34
2022-09-28T09:35:58.567Z,99048.96
2022-09-28T09:38:36.042Z,99048.96
2022-09-28T09:44:05.093Z,99050.44
2022-09-28T09:46:40.003Z,99041.88
2022-09-28T09:49:14.905Z,99041.88
2022-09-28T09:52:06.633Z,99037.63
2022-09-28T09:54:38.506Z,99037.63
2022-09-28T09:57:13.073Z,99046.29
2022-09-28T09:59:44.796Z,99045.41
2022-09-28T10:02:31.841Z,99055.22
2022-09-28T10:05:09.933Z,99055.55
2022-09-28T10:07:47.813Z,99057.74
2022-09-28T10:10:25.776Z,99057.50
2022-09-28T10:12:55.436Z,99054.27
2022-09-28T10:15:27.485Z,99054.27
2022-09-28T10:17:59.165Z,99056.30
2022-09-28T10:20:31.127Z,99052.70
2022-09-28T10:23:02.465Z,99052.70
2022-09-28T10:25:34.616Z,99053.92
2022-09-28T10:28:07.371Z,99057.11
2022-09-28T10:30:44.667Z,99057.36
2022-09-28T10:33:31.887Z,99058.59
2022-09-28T10:36:03.184Z,99054.63
2022-09-28T10:38:34.077Z,99055.27
2022-09-28T10:41:05.711Z,99055.27
2022-09-28T10:43:40.474Z,99057.84
2022-09-28T10:46:15.070Z,99061.02
2022-09-28T10:49:05.222Z,99051.50
2022-09-28T10:51:46.860Z,99057.29
2022-09-28T10:54:18.798Z,99048.30
2022-09-28T10:56:49.118Z,99051.39
2022-09-28T10:59:36.408Z,99045.89
2022-09-28T11:02:25.008Z,99045.89
2022-09-28T11:04:57.081Z,99052.06
2022-09-28T11:07:28.987Z,99052.06
2022-09-28T11:09:59.185Z,99048.65
2022-09-28T11:12:31.421Z,99048.65
2022-09-28T11:15:06.183Z,99053.09
2022-09-28T11:17:39.827Z,99053.09
2022-09-28T11:20:33.248Z,99061.62
2022-09-28T11:23:22.823Z,99061.63
2022-09-28T11:26:01.068Z,99062.30
2022-09-28T11:28:36.104Z,99062.30
2022-09-28T11:31:06.457Z,99070.17
2022-09-28T11:33:45.047Z,99067.31
2022-09-28T11:36:25.681Z,99066.63
2022-09-28T11:41:56.233Z,99058.98
2022-09-28T11:44:44.919Z,99065.02
2022-09-28T11:47:33.384Z,99049.98
2022-09-28T11:50:11.035Z,99059.99
2022-09-28T11:52:54.520Z,99059.99
2022-09-28T11:55:38.357Z,99061.47
2022-09-28T11:58:13.225Z,99060.44
2022-09-28T12:00:45.128Z,99057.34
2022-09-28T12:03:17.284Z,99057.66
2022-09-28T12:05:54.993Z,99058.76
2022-09-28T12:08:29.705Z,99060.60
2022-09-28T12:11:04.537Z,99069.03
2022-09-28T12:13:42.437Z,99070.30
2022-09-28T12:16:38.818Z,99063.72
2022-09-28T12:18:56.660Z,99062.45
2022-09-28T12:21:45.650Z,99061.70
2022-09-28T12:24:29.853Z,99061.70
2022-09-28T12:27:18.508Z,99068.46
2022-09-28T12:29:53.396Z,99057.83
2022-09-28T12:32:37.711Z,99057.83
2022-09-28T12:35:30.904Z,99058.56
2022-09-28T12:38:09.277Z,99060.45
2022-09-28T12:40:50.824Z,99064.04
2022-09-28T12:43:46.752Z,99064.04
2022-09-28T12:46:36.977Z,99069.82
2022-09-28T12:51:45.293Z,99067.68
2022-09-28T12:54:47.569Z,99067.97
2022-09-28T12:57:29.085Z,99070.02
2022-09-28T13:00:02.074Z,99070.02
2022-09-28T13:02:37.140Z,99069.21
2022-09-28T13:05:15.074Z,99071.03
2022-09-28T13:08:02.976Z,99076.22
2022-09-28T13:10:44.002Z,99076.22
2022-09-28T13:13:21.983Z,99077.22
2022-09-28T13:15:56.925Z,99078.92
2022-09-28T13:18:40.921Z,99082.80
2022-09-28T13:21:24.664Z,99082.80
2022-09-28T13:24:08.760Z,99080.42
2022-09-28T13:26:33.136Z,99085.78
2022-09-28T13:29:08.959Z,99087.35
2022-09-28T13:31:41.292Z,99087.35
2022-09-28T13:34:13.214Z,99079.36
2022-09-28T13:36:47.341Z,99092.27
2022-09-28T13:39:36.783Z,99092.27
2022-09-28T13:42:08.496Z,99089.41
2022-09-28T13:45:09.450Z,99089.41
2022-09-28T13:47:44.619Z,99106.84
2022-09-28T13:50:16.505Z,99106.84
2022-09-28T13:52:51.177Z,99108.11
2022-09-28T13:55:36.381Z,99109.70
2022-09-28T13:58:23.566Z,99108.55
2022-09-28T14:00:55.970Z,99108.55
2022-09-28T14:03:31.666Z,99112.55
2022-09-28T14:06:11.183Z,99106.28
2022-09-28T14:09:01.874Z,99106.28
2022-09-28T14:11:40.674Z,99110.84
2022-09-28T14:14:14.146Z,99117.91
2022-09-28T14:16:43.931Z,99114.50
2022-09-28T14:19:21.716Z,99113.81
2022-09-28T14:22:14.529Z,99113.81
2022-09-28T14:24:49.214Z,99113.34
2022-09-28T14:27:54.054Z,99114.70
2022-09-28T14:30:40.978Z,99113.02
2022-09-28T14:33:29.522Z,99120.22
2022-09-28T14:36:10.498Z,99110.28
2022-09-28T14:39:09.392Z,99110.72
2022-09-28T14:41:42.034Z,99110.72
2022-09-28T14:44:12.865Z,99117.45
2022-09-28T14:46:49.242Z,99123.83
2022-09-28T14:49:25.217Z,99121.31
2022-09-28T14:52:01.899Z,99121.82
2022-09-28T14:54:48.601Z,99121.82
2022-09-28T14:57:20.871Z,99123.13
2022-09-28T14:59:50.188Z,99129.08
2022-09-28T15:02:25.264Z,99132.12
2022-09-28T15:04:57.130Z,99128.00
2022-09-28T15:07:33.542Z,99129.59
2022-09-28T15:10:03.021Z,99136.41
2022-09-28T15:12:33.117Z,99127.25
2022-09-28T15:15:08.650Z,99127.25
2022-09-28T15:17:40.751Z,99127.22
2022-09-28T15:20:30.885Z,99119.28
2022-09-28T15:23:01.012Z,99120.34
2022-09-28T15:25:32.767Z,99120.34
2022-09-28T15:28:06.282Z,99126.99
2022-09-28T15:30:37.621Z,99129.59
2022-09-28T15:33:24.600Z,99138.95
2022-09-28T15:36:02.257Z,99136.80
2022-09-28T15:38:35.816Z,99136.13
2022-09-28T15:41:06.831Z,99141.58
2022-09-28T15:43:38.029Z,99148.06
2022-09-28T15:46:10.713Z,99150.47
2022-09-28T15:48:43.301Z,99147.17
2022-09-28T15:51:13.221Z,99161.62
2022-09-28T15:53:58.446Z,99161.34
2022-09-28T15:56:28.629Z,99168.53
2022-09-28T15:59:12.524Z,99180.16
2022-09-28T16:01:43.714Z,99175.88
2022-09-28T16:04:36.900Z,99190.27
2022-09-28T16:07:20.950Z,99184.09
2022-09-28T16:10:16.390Z,99191.02
2022-09-28T16:12:50.995Z,99186.79
2022-09-28T16:15:25.927Z,99186.79
2022-09-28T16:17:57.979Z,99192.13
2022-09-28T16:20:32.492Z,99192.13
2022-09-28T16:23:06.077Z,99197.36
2022-09-28T16:25:39.508Z,99190.77
2022-09-28T16:28:10.828Z,99193.46
2022-09-28T16:30:42.808Z,99198.30
2022-09-28T16:33:33.277Z,99198.30
2022-09-28T16:36:04.346Z,99195.49
2022-09-28T16:38:33.357Z,99195.49
2022-09-28T16:41:03.015Z,99198.22
2022-09-28T16:43:36.619Z,99202.84
2022-09-28T16:46:12.938Z,99197.50
2022-09-28T16:48:50.914Z,99196.25
2022-09-28T16:51:22.001Z,99196.25
2022-09-28T16:54:09.440Z,99203.09
2022-09-28T16:56:39.036Z,99209.91
2022-09-28T16:59:13.119Z,99204.22
2022-09-28T17:01:41.931Z,99206.26
2022-09-28T17:04:12.315Z,99206.26
2022-09-28T17:06:41.471Z,99211.00
2022-09-28T17:09:13.604Z,99208.31
2022-09-28T17:11:42.797Z,99208.31
2022-09-28T17:14:12.133Z,99213.56
2022-09-28T17:17:06.718Z,99220.36
2022-09-28T17:19:24.824Z,99220.36
2022-09-28T17:21:54.444Z,99225.06
2022-09-28T17:24:23.418Z,99235.73
2022-09-28T17:26:54.108Z,99235.73
2022-09-28T17:29:23.884Z,99241.09
2022-09-28T17:31:53.153Z,99245.97
2022-09-28T17:34:22.569Z,99240.20
2022-09-28T17:36:51.615Z,99246.06
2022-09-28T17:39:21.461Z,99244.03
2022-09-28T17:41:50.730Z,99244.03
2022-09-28T17:44:20.593Z,99251.52
2022-09-28T17:46:51.392Z,99249.20
2022-09-28T17:49:20.462Z,99247.02
2022-09-28T17:51:50.590Z,99278.38
2022-09-28T17:54:21.349Z,99239.25
2022-09-28T17:56:50.388Z,99239.25
2022-09-28T17:59:20.155Z,99247.73
2022-09-28T18:01:49.171Z,99251.91
2022-09-28T18:04:47.230Z,99251.91
2022-09-28T18:06:49.217Z,99254.92
2022-09-28T18:09:19.820Z,99249.26
2022-09-28T18:11:50.715Z,99262.02
2022-09-28T18:14:19.730Z,99254.01
2022-09-28T18:16:49.634Z,99254.01
2022-09-28T18:19:18.562Z,99268.16
2022-09-28T18:21:48.406Z,99278.25
2022-09-28T18:24:17.520Z,99280.38
2022-09-28T18:26:46.479Z,99280.38
2022-09-28T18:29:15.529Z,99277.13
2022-09-28T18:31:44.523Z,99274.14
2022-09-28T18:34:13.957Z,99285.23
2022-09-28T18:36:43.572Z,99285.23
2022-09-28T18:39:12.712Z,99288.10
2022-09-28T18:41:42.722Z,99274.66
2022-09-28T18:44:11.941Z,99278.67
2022-09-28T18:46:42.837Z,99287.72
2022-09-28T18:49:11.808Z,99287.45
2022-09-28T18:51:40.910Z,99287.45
2022-09-28T18:54:10.036Z,99279.15
2022-09-28T18:56:39.210Z,99284.87
2022-09-28T18:59:12.142Z,99284.87
2022-09-28T19:01:42.125Z,99276.52
2022-09-28T19:04:13.637Z,99276.52
2022-09-28T19:06:44.897Z,99286.64
2022-09-28T19:09:13.931Z,99286.64
2022-09-28T19:11:42.997Z,99288.58
2022-09-28T19:14:14.141Z,99292.08
2022-09-28T19:16:44.621Z,99297.31
2022-09-28T19:19:16.062Z,99295.16
2022-09-28T19:21:45.693Z,99302.06
2022-09-28T19:24:19.806Z,99311.41
2022-09-28T19:26:49.804Z,99311.41
2022-09-28T19:29:18.865Z,99319.76
2022-09-28T19:31:48.176Z,99311.67
2022-09-28T19:34:17.729Z,99317.60
2022-09-28T19:36:46.896Z,99315.59
2022-09-28T19:39:16.544Z,99325.91
2022-09-28T19:41:48.162Z,99328.65
2022-09-28T19:44:25.552Z,99328.65
2022-09-28T19:46:58.243Z,99331.66
2022-09-28T19:49:30.558Z,99337.03
2022-09-28T19:52:16.042Z,99337.03
2022-09-28T19:54:36.343Z,99341.99
2022-09-28T19:57:05.033Z,99341.99
2022-09-28T19:59:34.037Z,99353.16
2022-09-28T20:02:03.658Z,99356.38
2022-09-28T20:04:32.751Z,99361.74
2022-09-28T20:07:01.985Z,99358.22
2022-09-28T20:09:30.909Z,99358.22
2022-09-28T20:11:59.916Z,99369.14
2022-09-28T20:14:33.037Z,99369.14
2022-09-28T20:16:59.553Z,99373.48
2022-09-28T20:19:28.510Z,99373.48
2022-09-28T20:21:59.148Z,99360.94
2022-09-28T20:24:29.216Z,99362.52
2022-09-28T20:26:58.456Z,99369.94
2022-09-28T20:29:27.448Z,99369.94
2022-09-28T20:31:56.909Z,99369.30
2022-09-28T20:34:25.965Z,99376.61
2022-09-28T20:36:55.006Z,99376.61
2022-09-28T20:39:24.049Z,99374.52
2022-09-28T20:41:54.982Z,99374.52
2022-09-28T20:44:23.977Z,99370.87
2022-09-28T20:46:53.553Z,99370.87
2022-09-28T20:49:22.719Z,99370.11
2022-09-28T20:51:51.828Z,99373.58
2022-09-28T20:54:22.697Z,99373.58
2022-09-28T20:56:51.712Z,99385.84
2022-09-28T20:59:22.303Z,99377.59
2022-09-28T21:01:51.577Z,99382.64
2022-09-28T21:04:20.855Z,99388.78
2022-09-28T21:06:49.887Z,99397.89
2022-09-28T21:09:18.994Z,99397.89
2022-09-28T21:11:48.738Z,99404.43
2022-09-28T21:14:17.749Z,99401.75
2022-09-28T21:16:46.686Z,99407.91
2022-09-28T21:19:15.660Z,99417.20
2022-09-28T21:21:44.858Z,99412.19
2022-09-28T21:24:13.984Z,99410.54
2022-09-28T21:26:42.983Z,99410.54
2022-09-28T21:29:16.329Z,99410.00
2022-09-28T21:31:47.184Z,99427.81
2022-09-28T21:34:21.082Z,99427.81
2022-09-28T21:36:54.908Z,99423.35
2022-09-28T21:39:23.983Z,99424.23
2022-09-28T21:41:53.502Z,99424.23
2022-09-28T21:44:22.521Z,99435.33
2022-09-28T21:46:51.468Z,99435.33
2022-09-28T21:49:20.529Z,99456.98
2022-09-28T21:51:49.656Z,99459.55
2022-09-28T21:54:18.653Z,99459.56
2022-09-28T21:56:47.835Z,99459.56
2022-09-28T21:59:16.878Z,99469.22
2022-09-28T22:01:46.498Z,99469.22
2022-09-28T22:04:15.444Z,99462.02
2022-09-28T22:06:44.404Z,99463.64
2022-09-28T22:09:13.364Z,99463.64
2022-09-28T22:11:42.371Z,99463.45
2022-09-28T22:14:11.742Z,99468.20
2022-09-28T22:16:41.469Z,99473.66
2022-09-28T22:19:10.540Z,99473.66
2022-09-28T22:21:40.071Z,99473.84
2022-09-28T22:24:09.401Z,99468.77
2022-09-28T22:26:40.476Z,99468.77
2022-09-28T22:29:11.431Z,99470.16
2022-09-28T22:31:42.059Z,99481.22
2022-09-28T22:34:11.466Z,99476.92
2022-09-28T22:36:40.485Z,99476.92
2022-09-28T22:39:09.423Z,99483.84
2022-09-28T22:41:38.376Z,99485.92
2022-09-28T22:44:07.339Z,99500.24
2022-09-28T22:46:36.495Z,99500.24
2022-09-28T22:49:05.651Z,99501.69
2022-09-28T22:51:34.629Z,99496.00
2022-09-28T22:54:03.699Z,99503.14
2022-09-28T22:56:33.090Z,99507.75
2022-09-28T22:59:02.082Z,99497.92
2022-09-28T23:01:32.187Z,99497.92
2022-09-28T23:04:01.854Z,99511.94
2022-09-28T23:06:31.268Z,99511.94
2022-09-28T23:09:00.753Z,99508.55
2022-09-28T23:11:30.547Z,99510.18
2022-09-28T23:14:00.744Z,99493.89
2022-09-28T23:16:30.486Z,99516.87
2022-09-28T23:18:59.498Z,99515.99
2022-09-28T23:21:29.442Z,99515.99
2022-09-28T23:24:04.190Z,99521.29
2022-09-28T23:26:35.946Z,99523.55
2022-09-28T23:29:05.035Z,99523.55
2022-09-28T23:31:34.933Z,99525.97
2022-09-28T23:34:06.619Z,99530.06
2022-09-28T23:36:36.360Z,99530.06
2022-09-28T23:39:05.730Z,99529.59
2022-09-28T23:41:34.811Z,99529.48
2022-09-28T23:44:04.043Z,99538.27
2022-09-28T23:46:33.122Z,99538.27
2022-09-28T23:49:02.143Z,99546.38
2022-09-28T23:51:31.727Z,99543.84
2022-09-28T23:54:02.392Z,99551.56
2022-09-28T23:56:31.395Z,99551.66
2022-09-28T23:59:00.440Z,99551.66
